sensor_id;sensor_type;location;lat;lon;timestamp;P1;durP1;ratioP1;P2;durP2;ratioP2
5650;SDS011;40241;52.684;9.758;2024-03-02T00:01:03;6.17;;;5.53;;
5650;SDS011;40241;52.684;9.758;2024-03-02T00:03:28;6.30;;;5.70;;
5650;SDS011;40241;52.684;9.758;2024-03-02T00:05:54;5.67;;;5.10;;
5650;SDS011;40241;52.684;9.758;2024-03-02T00:08:22;5.70;;;5.10;;
5650;SDS011;40241;52.684;9.758;2024-03-02T00:10:53;6.20;;;5.60;;
5650;SDS011;40241;52.684;9.758;2024-03-02T00:13:22;6.17;;;5.57;;
5650;SDS011;40241;52.684;9.758;2024-03-02T00:15:52;8.57;;;6.83;;
5650;SDS011;40241;52.684;9.758;2024-03-02T00:18:31;5.77;;;5.23;;
5650;SDS011;40241;52.684;9.758;2024-03-02T00:20:58;6.50;;;5.37;;
5650;SDS011;40241;52.684;9.758;2024-03-02T00:23:27;5.90;;;4.83;;
5650;SDS011;40241;52.684;9.758;2024-03-02T00:25:54;7.40;;;5.40;;
5650;SDS011;40241;52.684;9.758;2024-03-02T00:28:35;5.83;;;5.10;;
5650;SDS011;40241;52.684;9.758;2024-03-02T00:31:05;6.47;;;5.40;;
5650;SDS011;40241;52.684;9.758;2024-03-02T00:33:33;6.47;;;5.13;;
5650;SDS011;40241;52.684;9.758;2024-03-02T00:36:01;5.30;;;4.80;;
5650;SDS011;40241;52.684;9.758;2024-03-02T00:38:28;5.93;;;5.33;;
5650;SDS011;40241;52.684;9.758;2024-03-02T00:40:54;5.30;;;4.67;;
5650;SDS011;40241;52.684;9.758;2024-03-02T00:43:42;6.10;;;5.50;;
5650;SDS011;40241;52.684;9.758;2024-03-02T00:46:12;6.60;;;5.20;;
5650;SDS011;40241;52.684;9.758;2024-03-02T00:48:44;5.83;;;5.17;;
5650;SDS011;40241;52.684;9.758;2024-03-02T00:51:13;5.73;;;5.23;;
5650;SDS011;40241;52.684;9.758;2024-03-02T00:53:39;12.53;;;5.07;;
5650;SDS011;40241;52.684;9.758;2024-03-02T00:56:04;6.10;;;5.50;;
5650;SDS011;40241;52.684;9.758;2024-03-02T00:58:34;6.07;;;5.07;;
5650;SDS011;40241;52.684;9.758;2024-03-02T01:00:59;7.93;;;4.53;;
5650;SDS011;40241;52.684;9.758;2024-03-02T01:03:25;8.50;;;5.60;;
5650;SDS011;40241;52.684;9.758;2024-03-02T01:05:51;5.00;;;4.60;;
5650;SDS011;40241;52.684;9.758;2024-03-02T01:08:16;8.60;;;5.30;;
5650;SDS011;40241;52.684;9.758;2024-03-02T01:10:41;5.40;;;4.60;;
5650;SDS011;40241;52.684;9.758;2024-03-02T01:13:07;5.67;;;5.07;;
5650;SDS011;40241;52.684;9.758;2024-03-02T01:15:33;5.40;;;4.90;;
5650;SDS011;40241;52.684;9.758;2024-03-02T01:17:58;6.37;;;5.70;;
5650;SDS011;40241;52.684;9.758;2024-03-02T01:20:23;5.07;;;4.57;;
5650;SDS011;40241;52.684;9.758;2024-03-02T01:22:49;5.90;;;5.23;;
5650;SDS011;40241;52.684;9.758;2024-03-02T01:25:15;5.70;;;5.13;;
5650;SDS011;40241;52.684;9.758;2024-03-02T01:27:40;5.60;;;5.10;;
5650;SDS011;40241;52.684;9.758;2024-03-02T01:30:06;6.83;;;5.43;;
5650;SDS011;40241;52.684;9.758;2024-03-02T01:32:31;4.87;;;4.47;;
5650;SDS011;40241;52.684;9.758;2024-03-02T01:34:57;7.30;;;5.10;;
5650;SDS011;40241;52.684;9.758;2024-03-02T01:37:22;4.97;;;4.57;;
5650;SDS011;40241;52.684;9.758;2024-03-02T01:39:47;5.47;;;4.97;;
5650;SDS011;40241;52.684;9.758;2024-03-02T01:42:13;5.93;;;5.37;;
5650;SDS011;40241;52.684;9.758;2024-03-02T01:44:39;9.37;;;5.70;;
5650;SDS011;40241;52.684;9.758;2024-03-02T01:47:05;6.27;;;5.57;;
5650;SDS011;40241;52.684;9.758;2024-03-02T01:49:30;5.73;;;5.23;;
5650;SDS011;40241;52.684;9.758;2024-03-02T01:51:56;5.90;;;5.27;;
5650;SDS011;40241;52.684;9.758;2024-03-02T01:54:21;5.30;;;4.80;;
5650;SDS011;40241;52.684;9.758;2024-03-02T01:56:46;7.00;;;5.30;;
5650;SDS011;40241;52.684;9.758;2024-03-02T01:59:12;5.70;;;4.70;;
5650;SDS011;40241;52.684;9.758;2024-03-02T02:01:38;5.53;;;4.90;;
5650;SDS011;40241;52.684;9.758;2024-03-02T02:04:04;5.67;;;5.07;;
5650;SDS011;40241;52.684;9.758;2024-03-02T02:06:31;6.20;;;5.57;;
5650;SDS011;40241;52.684;9.758;2024-03-02T02:08:57;6.70;;;5.40;;
5650;SDS011;40241;52.684;9.758;2024-03-02T02:11:22;6.67;;;5.97;;
5650;SDS011;40241;52.684;9.758;2024-03-02T02:13:48;5.40;;;4.80;;
5650;SDS011;40241;52.684;9.758;2024-03-02T02:16:13;5.10;;;4.70;;
5650;SDS011;40241;52.684;9.758;2024-03-02T02:18:38;5.87;;;5.27;;
5650;SDS011;40241;52.684;9.758;2024-03-02T02:21:04;6.10;;;5.20;;
5650;SDS011;40241;52.684;9.758;2024-03-02T02:23:29;5.73;;;4.77;;
5650;SDS011;40241;52.684;9.758;2024-03-02T02:25:55;5.47;;;4.90;;
5650;SDS011;40241;52.684;9.758;2024-03-02T02:28:20;7.50;;;6.00;;
5650;SDS011;40241;52.684;9.758;2024-03-02T02:30:46;7.90;;;6.47;;
5650;SDS011;40241;52.684;9.758;2024-03-02T02:33:11;9.97;;;7.53;;
5650;SDS011;40241;52.684;9.758;2024-03-02T02:35:36;7.10;;;5.80;;
5650;SDS011;40241;52.684;9.758;2024-03-02T02:38:02;6.83;;;5.63;;
5650;SDS011;40241;52.684;9.758;2024-03-02T02:40:28;6.50;;;5.67;;
5650;SDS011;40241;52.684;9.758;2024-03-02T02:42:55;5.47;;;4.90;;
5650;SDS011;40241;52.684;9.758;2024-03-02T02:45:21;6.80;;;6.10;;
5650;SDS011;40241;52.684;9.758;2024-03-02T02:47:46;7.97;;;6.40;;
5650;SDS011;40241;52.684;9.758;2024-03-02T02:50:12;6.63;;;5.87;;
5650;SDS011;40241;52.684;9.758;2024-03-02T02:52:38;6.93;;;5.83;;
5650;SDS011;40241;52.684;9.758;2024-03-02T02:55:06;6.67;;;5.53;;
5650;SDS011;40241;52.684;9.758;2024-03-02T02:57:33;6.77;;;6.13;;
5650;SDS011;40241;52.684;9.758;2024-03-02T03:00:05;5.40;;;4.90;;
5650;SDS011;40241;52.684;9.758;2024-03-02T03:02:35;6.50;;;5.80;;
5650;SDS011;40241;52.684;9.758;2024-03-02T03:05:04;8.20;;;5.40;;
5650;SDS011;40241;52.684;9.758;2024-03-02T03:07:33;7.43;;;5.83;;
5650;SDS011;40241;52.684;9.758;2024-03-02T03:10:02;7.90;;;6.10;;
5650;SDS011;40241;52.684;9.758;2024-03-02T03:12:29;6.23;;;5.53;;
5650;SDS011;40241;52.684;9.758;2024-03-02T03:14:56;10.53;;;5.73;;
5650;SDS011;40241;52.684;9.758;2024-03-02T03:17:22;6.87;;;6.00;;
5650;SDS011;40241;52.684;9.758;2024-03-02T03:19:48;6.70;;;5.40;;
5650;SDS011;40241;52.684;9.758;2024-03-02T03:22:13;6.17;;;5.57;;
5650;SDS011;40241;52.684;9.758;2024-03-02T03:24:38;5.50;;;5.00;;
5650;SDS011;40241;52.684;9.758;2024-03-02T03:27:04;5.87;;;5.27;;
5650;SDS011;40241;52.684;9.758;2024-03-02T03:29:29;6.07;;;5.17;;
5650;SDS011;40241;52.684;9.758;2024-03-02T03:31:54;7.50;;;5.60;;
5650;SDS011;40241;52.684;9.758;2024-03-02T03:34:20;5.47;;;4.93;;
5650;SDS011;40241;52.684;9.758;2024-03-02T03:36:45;7.40;;;5.90;;
5650;SDS011;40241;52.684;9.758;2024-03-02T03:39:10;6.03;;;5.00;;
5650;SDS011;40241;52.684;9.758;2024-03-02T03:41:36;6.90;;;5.47;;
5650;SDS011;40241;52.684;9.758;2024-03-02T03:44:01;6.10;;;5.00;;
5650;SDS011;40241;52.684;9.758;2024-03-02T03:46:26;6.40;;;5.77;;
5650;SDS011;40241;52.684;9.758;2024-03-02T03:48:52;9.10;;;6.30;;
5650;SDS011;40241;52.684;9.758;2024-03-02T03:51:17;7.43;;;6.47;;
5650;SDS011;40241;52.684;9.758;2024-03-02T03:53:42;8.00;;;6.40;;
5650;SDS011;40241;52.684;9.758;2024-03-02T03:56:08;7.70;;;5.87;;
5650;SDS011;40241;52.684;9.758;2024-03-02T03:58:33;9.73;;;6.57;;
5650;SDS011;40241;52.684;9.758;2024-03-02T04:00:58;7.57;;;6.63;;
5650;SDS011;40241;52.684;9.758;2024-03-02T04:03:24;8.70;;;7.00;;
5650;SDS011;40241;52.684;9.758;2024-03-02T04:05:49;11.43;;;8.53;;
5650;SDS011;40241;52.684;9.758;2024-03-02T04:08:15;9.40;;;7.40;;
5650;SDS011;40241;52.684;9.758;2024-03-02T04:10:40;10.67;;;7.60;;
5650;SDS011;40241;52.684;9.758;2024-03-02T04:13:07;9.03;;;6.70;;
5650;SDS011;40241;52.684;9.758;2024-03-02T04:15:32;11.03;;;8.50;;
5650;SDS011;40241;52.684;9.758;2024-03-02T04:17:57;12.20;;;7.80;;
5650;SDS011;40241;52.684;9.758;2024-03-02T04:20:23;10.03;;;7.17;;
5650;SDS011;40241;52.684;9.758;2024-03-02T04:22:48;10.67;;;7.70;;
5650;SDS011;40241;52.684;9.758;2024-03-02T04:25:13;9.17;;;8.17;;
5650;SDS011;40241;52.684;9.758;2024-03-02T04:27:39;11.17;;;7.97;;
5650;SDS011;40241;52.684;9.758;2024-03-02T04:30:04;9.50;;;7.77;;
5650;SDS011;40241;52.684;9.758;2024-03-02T04:32:30;10.90;;;8.20;;
5650;SDS011;40241;52.684;9.758;2024-03-02T04:34:56;12.17;;;7.93;;
5650;SDS011;40241;52.684;9.758;2024-03-02T04:37:22;10.67;;;8.13;;
5650;SDS011;40241;52.684;9.758;2024-03-02T04:39:47;9.17;;;7.70;;
5650;SDS011;40241;52.684;9.758;2024-03-02T04:42:12;11.00;;;8.10;;
5650;SDS011;40241;52.684;9.758;2024-03-02T04:44:38;12.00;;;8.30;;
5650;SDS011;40241;52.684;9.758;2024-03-02T04:47:03;11.97;;;7.70;;
5650;SDS011;40241;52.684;9.758;2024-03-02T04:49:29;12.40;;;7.73;;
5650;SDS011;40241;52.684;9.758;2024-03-02T04:51:55;11.80;;;7.53;;
5650;SDS011;40241;52.684;9.758;2024-03-02T04:54:21;12.00;;;8.07;;
5650;SDS011;40241;52.684;9.758;2024-03-02T04:56:47;7.83;;;6.97;;
5650;SDS011;40241;52.684;9.758;2024-03-02T04:59:15;10.77;;;7.50;;
5650;SDS011;40241;52.684;9.758;2024-03-02T05:01:44;12.40;;;8.50;;
5650;SDS011;40241;52.684;9.758;2024-03-02T05:04:10;10.97;;;7.87;;
5650;SDS011;40241;52.684;9.758;2024-03-02T05:06:38;9.80;;;7.70;;
5650;SDS011;40241;52.684;9.758;2024-03-02T05:09:07;11.40;;;7.83;;
5650;SDS011;40241;52.684;9.758;2024-03-02T05:11:35;12.33;;;8.80;;
5650;SDS011;40241;52.684;9.758;2024-03-02T05:14:04;10.20;;;7.23;;
5650;SDS011;40241;52.684;9.758;2024-03-02T05:16:36;12.43;;;8.13;;
5650;SDS011;40241;52.684;9.758;2024-03-02T05:19:03;9.83;;;7.23;;
5650;SDS011;40241;52.684;9.758;2024-03-02T05:21:31;9.40;;;6.93;;
5650;SDS011;40241;52.684;9.758;2024-03-02T05:23:57;10.57;;;7.37;;
5650;SDS011;40241;52.684;9.758;2024-03-02T05:26:22;9.17;;;7.53;;
5650;SDS011;40241;52.684;9.758;2024-03-02T05:28:47;11.57;;;7.70;;
5650;SDS011;40241;52.684;9.758;2024-03-02T05:31:14;11.77;;;7.80;;
5650;SDS011;40241;52.684;9.758;2024-03-02T05:33:41;11.00;;;7.97;;
5650;SDS011;40241;52.684;9.758;2024-03-02T05:36:07;10.87;;;8.00;;
5650;SDS011;40241;52.684;9.758;2024-03-02T05:38:34;11.93;;;8.10;;
5650;SDS011;40241;52.684;9.758;2024-03-02T05:41:00;11.20;;;8.00;;
5650;SDS011;40241;52.684;9.758;2024-03-02T05:43:25;12.67;;;8.80;;
5650;SDS011;40241;52.684;9.758;2024-03-02T05:45:51;12.10;;;7.50;;
5650;SDS011;40241;52.684;9.758;2024-03-02T05:48:16;10.57;;;7.70;;
5650;SDS011;40241;52.684;9.758;2024-03-02T05:50:41;10.93;;;7.90;;
5650;SDS011;40241;52.684;9.758;2024-03-02T05:53:06;12.40;;;8.53;;
5650;SDS011;40241;52.684;9.758;2024-03-02T05:55:32;10.20;;;7.90;;
5650;SDS011;40241;52.684;9.758;2024-03-02T05:57:58;14.87;;;8.90;;
5650;SDS011;40241;52.684;9.758;2024-03-02T06:00:24;10.87;;;8.33;;
5650;SDS011;40241;52.684;9.758;2024-03-02T06:02:49;12.90;;;8.30;;
5650;SDS011;40241;52.684;9.758;2024-03-02T06:05:15;11.80;;;8.13;;
5650;SDS011;40241;52.684;9.758;2024-03-02T06:07:42;11.10;;;7.90;;
5650;SDS011;40241;52.684;9.758;2024-03-02T06:10:08;13.03;;;8.30;;
5650;SDS011;40241;52.684;9.758;2024-03-02T06:12:34;12.17;;;8.63;;
5650;SDS011;40241;52.684;9.758;2024-03-02T06:14:59;14.00;;;9.47;;
5650;SDS011;40241;52.684;9.758;2024-03-02T06:17:25;14.73;;;9.40;;
5650;SDS011;40241;52.684;9.758;2024-03-02T06:19:50;19.60;;;9.30;;
5650;SDS011;40241;52.684;9.758;2024-03-02T06:22:15;11.20;;;8.40;;
5650;SDS011;40241;52.684;9.758;2024-03-02T06:24:41;12.20;;;8.30;;
5650;SDS011;40241;52.684;9.758;2024-03-02T06:27:06;12.37;;;8.53;;
5650;SDS011;40241;52.684;9.758;2024-03-02T06:29:34;13.03;;;9.20;;
5650;SDS011;40241;52.684;9.758;2024-03-02T06:32:00;14.30;;;9.37;;
5650;SDS011;40241;52.684;9.758;2024-03-02T06:34:25;10.20;;;7.70;;
5650;SDS011;40241;52.684;9.758;2024-03-02T06:36:51;10.20;;;8.43;;
5650;SDS011;40241;52.684;9.758;2024-03-02T06:39:16;13.10;;;8.73;;
5650;SDS011;40241;52.684;9.758;2024-03-02T06:41:41;9.77;;;7.80;;
5650;SDS011;40241;52.684;9.758;2024-03-02T06:44:07;14.50;;;9.90;;
5650;SDS011;40241;52.684;9.758;2024-03-02T06:46:33;14.60;;;8.43;;
5650;SDS011;40241;52.684;9.758;2024-03-02T06:48:58;13.03;;;8.60;;
5650;SDS011;40241;52.684;9.758;2024-03-02T06:51:23;12.20;;;8.83;;
5650;SDS011;40241;52.684;9.758;2024-03-02T06:53:49;12.70;;;9.23;;
5650;SDS011;40241;52.684;9.758;2024-03-02T06:56:14;14.87;;;9.47;;
5650;SDS011;40241;52.684;9.758;2024-03-02T06:58:39;13.30;;;8.97;;
5650;SDS011;40241;52.684;9.758;2024-03-02T07:01:05;12.23;;;8.73;;
5650;SDS011;40241;52.684;9.758;2024-03-02T07:03:30;12.97;;;8.63;;
5650;SDS011;40241;52.684;9.758;2024-03-02T07:05:55;13.33;;;7.90;;
5650;SDS011;40241;52.684;9.758;2024-03-02T07:08:22;11.57;;;8.07;;
5650;SDS011;40241;52.684;9.758;2024-03-02T07:10:47;13.53;;;9.30;;
5650;SDS011;40241;52.684;9.758;2024-03-02T07:13:12;14.50;;;8.83;;
5650;SDS011;40241;52.684;9.758;2024-03-02T07:15:38;11.90;;;8.73;;
5650;SDS011;40241;52.684;9.758;2024-03-02T07:18:22;22.43;;;9.10;;
5650;SDS011;40241;52.684;9.758;2024-03-02T07:20:47;16.17;;;9.60;;
5650;SDS011;40241;52.684;9.758;2024-03-02T07:23:14;13.80;;;9.03;;
5650;SDS011;40241;52.684;9.758;2024-03-02T07:25:40;12.00;;;8.10;;
5650;SDS011;40241;52.684;9.758;2024-03-02T07:28:05;18.10;;;9.77;;
5650;SDS011;40241;52.684;9.758;2024-03-02T07:30:32;13.77;;;9.77;;
5650;SDS011;40241;52.684;9.758;2024-03-02T07:32:57;15.70;;;9.87;;
5650;SDS011;40241;52.684;9.758;2024-03-02T07:35:24;13.37;;;9.97;;
5650;SDS011;40241;52.684;9.758;2024-03-02T07:37:52;13.57;;;9.13;;
5650;SDS011;40241;52.684;9.758;2024-03-02T07:40:18;17.17;;;10.53;;
5650;SDS011;40241;52.684;9.758;2024-03-02T07:42:44;14.57;;;9.90;;
5650;SDS011;40241;52.684;9.758;2024-03-02T07:45:10;13.07;;;9.30;;
5650;SDS011;40241;52.684;9.758;2024-03-02T07:47:36;14.00;;;9.40;;
5650;SDS011;40241;52.684;9.758;2024-03-02T07:50:02;17.00;;;9.60;;
5650;SDS011;40241;52.684;9.758;2024-03-02T07:52:28;14.10;;;9.70;;
5650;SDS011;40241;52.684;9.758;2024-03-02T07:54:54;13.20;;;9.47;;
5650;SDS011;40241;52.684;9.758;2024-03-02T07:57:20;12.77;;;8.80;;
5650;SDS011;40241;52.684;9.758;2024-03-02T07:59:46;11.53;;;8.23;;
5650;SDS011;40241;52.684;9.758;2024-03-02T08:02:12;14.23;;;9.83;;
5650;SDS011;40241;52.684;9.758;2024-03-02T08:04:37;10.20;;;7.60;;
5650;SDS011;40241;52.684;9.758;2024-03-02T08:07:03;12.80;;;8.50;;
5650;SDS011;40241;52.684;9.758;2024-03-02T08:09:29;15.47;;;9.53;;
5650;SDS011;40241;52.684;9.758;2024-03-02T08:11:54;12.30;;;9.40;;
5650;SDS011;40241;52.684;9.758;2024-03-02T08:14:21;17.63;;;10.60;;
5650;SDS011;40241;52.684;9.758;2024-03-02T08:16:46;15.63;;;11.03;;
5650;SDS011;40241;52.684;9.758;2024-03-02T08:19:12;15.90;;;10.77;;
5650;SDS011;40241;52.684;9.758;2024-03-02T08:21:37;15.87;;;10.80;;
5650;SDS011;40241;52.684;9.758;2024-03-02T08:24:03;14.83;;;10.37;;
5650;SDS011;40241;52.684;9.758;2024-03-02T08:26:28;17.37;;;10.80;;
5650;SDS011;40241;52.684;9.758;2024-03-02T08:28:56;13.63;;;10.50;;
5650;SDS011;40241;52.684;9.758;2024-03-02T08:31:22;14.77;;;10.10;;
5650;SDS011;40241;52.684;9.758;2024-03-02T08:33:47;12.27;;;9.50;;
5650;SDS011;40241;52.684;9.758;2024-03-02T08:36:12;14.20;;;10.43;;
5650;SDS011;40241;52.684;9.758;2024-03-02T08:38:38;15.23;;;10.60;;
5650;SDS011;40241;52.684;9.758;2024-03-02T08:41:04;15.10;;;11.27;;
5650;SDS011;40241;52.684;9.758;2024-03-02T08:43:29;19.53;;;12.23;;
5650;SDS011;40241;52.684;9.758;2024-03-02T08:45:55;15.30;;;11.20;;
5650;SDS011;40241;52.684;9.758;2024-03-02T08:48:20;16.07;;;10.20;;
5650;SDS011;40241;52.684;9.758;2024-03-02T08:50:46;17.10;;;11.30;;
5650;SDS011;40241;52.684;9.758;2024-03-02T08:53:11;13.70;;;10.77;;
5650;SDS011;40241;52.684;9.758;2024-03-02T08:55:37;14.73;;;11.53;;
5650;SDS011;40241;52.684;9.758;2024-03-02T08:58:02;15.60;;;11.30;;
5650;SDS011;40241;52.684;9.758;2024-03-02T09:00:28;18.80;;;11.33;;
5650;SDS011;40241;52.684;9.758;2024-03-02T09:02:53;13.50;;;10.33;;
5650;SDS011;40241;52.684;9.758;2024-03-02T09:05:19;12.97;;;10.10;;
5650;SDS011;40241;52.684;9.758;2024-03-02T09:07:44;16.00;;;10.80;;
5650;SDS011;40241;52.684;9.758;2024-03-02T09:10:09;14.30;;;9.60;;
5650;SDS011;40241;52.684;9.758;2024-03-02T09:12:35;12.23;;;9.37;;
5650;SDS011;40241;52.684;9.758;2024-03-02T09:15:01;15.20;;;10.87;;
5650;SDS011;40241;52.684;9.758;2024-03-02T09:17:28;14.83;;;9.80;;
5650;SDS011;40241;52.684;9.758;2024-03-02T09:19:53;12.77;;;9.90;;
5650;SDS011;40241;52.684;9.758;2024-03-02T09:22:19;10.63;;;8.60;;
5650;SDS011;40241;52.684;9.758;2024-03-02T09:24:44;11.67;;;9.10;;
5650;SDS011;40241;52.684;9.758;2024-03-02T09:27:10;12.80;;;9.27;;
5650;SDS011;40241;52.684;9.758;2024-03-02T09:29:35;13.87;;;8.70;;
5650;SDS011;40241;52.684;9.758;2024-03-02T09:32:01;14.23;;;10.10;;
5650;SDS011;40241;52.684;9.758;2024-03-02T09:34:26;12.97;;;9.03;;
5650;SDS011;40241;52.684;9.758;2024-03-02T09:36:52;11.50;;;8.30;;
5650;SDS011;40241;52.684;9.758;2024-03-02T09:39:17;11.60;;;9.00;;
5650;SDS011;40241;52.684;9.758;2024-03-02T09:41:43;11.10;;;7.70;;
5650;SDS011;40241;52.684;9.758;2024-03-02T09:44:09;8.80;;;6.70;;
5650;SDS011;40241;52.684;9.758;2024-03-02T09:46:34;12.37;;;8.57;;
5650;SDS011;40241;52.684;9.758;2024-03-02T09:49:01;9.00;;;6.90;;
5650;SDS011;40241;52.684;9.758;2024-03-02T09:51:27;10.60;;;7.87;;
5650;SDS011;40241;52.684;9.758;2024-03-02T09:53:53;12.40;;;8.70;;
5650;SDS011;40241;52.684;9.758;2024-03-02T09:56:20;9.83;;;7.53;;
5650;SDS011;40241;52.684;9.758;2024-03-02T09:58:46;14.20;;;7.80;;
5650;SDS011;40241;52.684;9.758;2024-03-02T10:01:12;9.87;;;8.17;;
5650;SDS011;40241;52.684;9.758;2024-03-02T10:03:38;8.80;;;6.57;;
5650;SDS011;40241;52.684;9.758;2024-03-02T10:06:20;8.50;;;6.37;;
5650;SDS011;40241;52.684;9.758;2024-03-02T10:08:46;9.30;;;7.07;;
5650;SDS011;40241;52.684;9.758;2024-03-02T10:11:25;7.70;;;6.53;;
5650;SDS011;40241;52.684;9.758;2024-03-02T10:14:10;7.20;;;5.97;;
5650;SDS011;40241;52.684;9.758;2024-03-02T10:16:38;7.77;;;6.17;;
5650;SDS011;40241;52.684;9.758;2024-03-02T10:19:19;7.00;;;6.30;;
5650;SDS011;40241;52.684;9.758;2024-03-02T10:21:47;6.60;;;5.93;;
5650;SDS011;40241;52.684;9.758;2024-03-02T10:24:14;6.90;;;5.57;;
5650;SDS011;40241;52.684;9.758;2024-03-02T10:26:40;7.67;;;5.83;;
5650;SDS011;40241;52.684;9.758;2024-03-02T10:29:07;6.40;;;5.50;;
5650;SDS011;40241;52.684;9.758;2024-03-02T10:31:33;8.13;;;6.13;;
5650;SDS011;40241;52.684;9.758;2024-03-02T10:33:59;10.13;;;6.47;;
5650;SDS011;40241;52.684;9.758;2024-03-02T10:36:25;6.77;;;6.07;;
5650;SDS011;40241;52.684;9.758;2024-03-02T10:38:51;6.13;;;5.37;;
5650;SDS011;40241;52.684;9.758;2024-03-02T10:41:20;7.07;;;5.20;;
5650;SDS011;40241;52.684;9.758;2024-03-02T10:43:48;7.03;;;5.23;;
5650;SDS011;40241;52.684;9.758;2024-03-02T10:46:14;8.97;;;5.57;;
5650;SDS011;40241;52.684;9.758;2024-03-02T10:48:41;7.80;;;5.17;;
5650;SDS011;40241;52.684;9.758;2024-03-02T10:51:10;6.10;;;5.20;;
5650;SDS011;40241;52.684;9.758;2024-03-02T10:53:36;5.63;;;4.63;;
5650;SDS011;40241;52.684;9.758;2024-03-02T10:56:01;8.93;;;6.00;;
5650;SDS011;40241;52.684;9.758;2024-03-02T10:58:32;6.80;;;5.30;;
5650;SDS011;40241;52.684;9.758;2024-03-02T11:01:02;6.10;;;4.60;;
5650;SDS011;40241;52.684;9.758;2024-03-02T11:03:33;6.30;;;4.80;;
5650;SDS011;40241;52.684;9.758;2024-03-02T11:06:02;5.60;;;5.10;;
5650;SDS011;40241;52.684;9.758;2024-03-02T11:08:32;5.43;;;4.50;;
5650;SDS011;40241;52.684;9.758;2024-03-02T11:11:02;4.60;;;4.17;;
5650;SDS011;40241;52.684;9.758;2024-03-02T11:13:32;5.80;;;4.90;;
5650;SDS011;40241;52.684;9.758;2024-03-02T11:16:06;5.43;;;4.07;;
5650;SDS011;40241;52.684;9.758;2024-03-02T11:18:37;5.10;;;3.93;;
5650;SDS011;40241;52.684;9.758;2024-03-02T11:21:04;4.10;;;3.70;;
5650;SDS011;40241;52.684;9.758;2024-03-02T11:23:33;6.30;;;4.13;;
5650;SDS011;40241;52.684;9.758;2024-03-02T11:28:46;4.27;;;3.70;;
5650;SDS011;40241;52.684;9.758;2024-03-02T11:31:12;4.30;;;3.70;;
5650;SDS011;40241;52.684;9.758;2024-03-02T11:33:37;4.33;;;3.93;;
5650;SDS011;40241;52.684;9.758;2024-03-02T11:36:03;3.47;;;3.17;;
5650;SDS011;40241;52.684;9.758;2024-03-02T11:38:30;3.80;;;3.40;;
5650;SDS011;40241;52.684;9.758;2024-03-02T11:40:57;4.60;;;4.20;;
5650;SDS011;40241;52.684;9.758;2024-03-02T11:43:24;5.10;;;4.60;;
5650;SDS011;40241;52.684;9.758;2024-03-02T11:46:03;3.97;;;3.57;;
5650;SDS011;40241;52.684;9.758;2024-03-02T11:48:32;4.47;;;3.60;;
5650;SDS011;40241;52.684;9.758;2024-03-02T11:50:58;3.63;;;3.33;;
5650;SDS011;40241;52.684;9.758;2024-03-02T11:53:25;4.87;;;3.77;;
5650;SDS011;40241;52.684;9.758;2024-03-02T11:55:52;3.60;;;3.30;;
5650;SDS011;40241;52.684;9.758;2024-03-02T11:58:20;3.77;;;3.47;;
5650;SDS011;40241;52.684;9.758;2024-03-02T12:00:51;3.67;;;3.13;;
5650;SDS011;40241;52.684;9.758;2024-03-02T12:03:18;3.30;;;3.00;;
5650;SDS011;40241;52.684;9.758;2024-03-02T12:05:47;4.60;;;3.50;;
5650;SDS011;40241;52.684;9.758;2024-03-02T12:08:14;3.40;;;2.90;;
5650;SDS011;40241;52.684;9.758;2024-03-02T12:10:39;3.43;;;2.93;;
5650;SDS011;40241;52.684;9.758;2024-03-02T12:13:06;2.97;;;2.70;;
5650;SDS011;40241;52.684;9.758;2024-03-02T12:15:35;3.57;;;2.90;;
5650;SDS011;40241;52.684;9.758;2024-03-02T12:18:03;3.93;;;3.20;;
5650;SDS011;40241;52.684;9.758;2024-03-02T12:20:30;3.97;;;3.57;;
5650;SDS011;40241;52.684;9.758;2024-03-02T12:23:00;3.43;;;3.13;;
5650;SDS011;40241;52.684;9.758;2024-03-02T12:25:27;4.23;;;2.97;;
5650;SDS011;40241;52.684;9.758;2024-03-02T12:27:54;3.57;;;3.27;;
5650;SDS011;40241;52.684;9.758;2024-03-02T12:30:20;2.87;;;2.67;;
5650;SDS011;40241;52.684;9.758;2024-03-02T12:32:46;3.20;;;2.90;;
5650;SDS011;40241;52.684;9.758;2024-03-02T12:35:12;3.20;;;2.90;;
5650;SDS011;40241;52.684;9.758;2024-03-02T12:37:44;4.63;;;3.17;;
5650;SDS011;40241;52.684;9.758;2024-03-02T12:40:11;3.07;;;2.87;;
5650;SDS011;40241;52.684;9.758;2024-03-02T12:42:38;3.77;;;3.07;;
5650;SDS011;40241;52.684;9.758;2024-03-02T12:45:04;4.03;;;3.50;;
5650;SDS011;40241;52.684;9.758;2024-03-02T12:47:31;2.93;;;2.73;;
5650;SDS011;40241;52.684;9.758;2024-03-02T12:49:57;2.87;;;2.57;;
5650;SDS011;40241;52.684;9.758;2024-03-02T12:52:23;3.60;;;3.07;;
5650;SDS011;40241;52.684;9.758;2024-03-02T12:54:49;3.37;;;2.97;;
5650;SDS011;40241;52.684;9.758;2024-03-02T12:57:20;3.77;;;3.47;;
5650;SDS011;40241;52.684;9.758;2024-03-02T12:59:46;4.70;;;4.20;;
5650;SDS011;40241;52.684;9.758;2024-03-02T13:02:18;5.00;;;3.40;;
5650;SDS011;40241;52.684;9.758;2024-03-02T13:04:44;3.97;;;3.33;;
5650;SDS011;40241;52.684;9.758;2024-03-02T13:07:10;4.40;;;3.73;;
5650;SDS011;40241;52.684;9.758;2024-03-02T13:09:37;3.07;;;2.83;;
5650;SDS011;40241;52.684;9.758;2024-03-02T13:12:02;3.73;;;3.03;;
5650;SDS011;40241;52.684;9.758;2024-03-02T13:14:31;3.63;;;3.33;;
5650;SDS011;40241;52.684;9.758;2024-03-02T13:16:57;3.43;;;3.13;;
5650;SDS011;40241;52.684;9.758;2024-03-02T13:19:23;4.50;;;3.70;;
5650;SDS011;40241;52.684;9.758;2024-03-02T13:21:48;3.97;;;3.57;;
5650;SDS011;40241;52.684;9.758;2024-03-02T13:24:15;3.97;;;3.60;;
5650;SDS011;40241;52.684;9.758;2024-03-02T13:26:40;3.03;;;2.73;;
5650;SDS011;40241;52.684;9.758;2024-03-02T13:29:06;4.10;;;3.70;;
5650;SDS011;40241;52.684;9.758;2024-03-02T13:31:32;4.03;;;3.20;;
5650;SDS011;40241;52.684;9.758;2024-03-02T13:33:58;3.33;;;3.03;;
5650;SDS011;40241;52.684;9.758;2024-03-02T13:36:23;2.90;;;2.70;;
5650;SDS011;40241;52.684;9.758;2024-03-02T13:38:49;3.13;;;2.90;;
5650;SDS011;40241;52.684;9.758;2024-03-02T13:41:14;3.07;;;2.77;;
5650;SDS011;40241;52.684;9.758;2024-03-02T13:43:39;3.07;;;2.80;;
5650;SDS011;40241;52.684;9.758;2024-03-02T13:46:05;2.63;;;2.43;;
5650;SDS011;40241;52.684;9.758;2024-03-02T13:48:31;2.70;;;2.50;;
5650;SDS011;40241;52.684;9.758;2024-03-02T13:50:57;2.43;;;2.23;;
5650;SDS011;40241;52.684;9.758;2024-03-02T13:53:22;2.93;;;2.40;;
5650;SDS011;40241;52.684;9.758;2024-03-02T13:55:48;2.47;;;2.27;;
5650;SDS011;40241;52.684;9.758;2024-03-02T13:58:14;2.40;;;2.30;;
5650;SDS011;40241;52.684;9.758;2024-03-02T14:00:39;2.50;;;2.30;;
5650;SDS011;40241;52.684;9.758;2024-03-02T14:03:07;4.70;;;2.50;;
5650;SDS011;40241;52.684;9.758;2024-03-02T14:05:33;2.63;;;2.07;;
5650;SDS011;40241;52.684;9.758;2024-03-02T14:07:59;5.33;;;2.50;;
5650;SDS011;40241;52.684;9.758;2024-03-02T14:10:27;2.17;;;1.97;;
5650;SDS011;40241;52.684;9.758;2024-03-02T14:12:53;3.87;;;1.97;;
5650;SDS011;40241;52.684;9.758;2024-03-02T14:15:20;3.00;;;2.70;;
5650;SDS011;40241;52.684;9.758;2024-03-02T14:17:46;2.87;;;2.53;;
5650;SDS011;40241;52.684;9.758;2024-03-02T14:20:11;2.50;;;2.30;;
5650;SDS011;40241;52.684;9.758;2024-03-02T14:22:38;2.57;;;2.37;;
5650;SDS011;40241;52.684;9.758;2024-03-02T14:25:03;2.40;;;2.20;;
5650;SDS011;40241;52.684;9.758;2024-03-02T14:27:29;2.50;;;2.30;;
5650;SDS011;40241;52.684;9.758;2024-03-02T14:29:54;2.97;;;2.60;;
5650;SDS011;40241;52.684;9.758;2024-03-02T14:32:20;2.33;;;2.17;;
5650;SDS011;40241;52.684;9.758;2024-03-02T14:34:45;2.27;;;2.17;;
5650;SDS011;40241;52.684;9.758;2024-03-02T14:37:11;2.30;;;2.10;;
5650;SDS011;40241;52.684;9.758;2024-03-02T14:39:38;2.30;;;2.03;;
5650;SDS011;40241;52.684;9.758;2024-03-02T14:42:04;2.00;;;1.90;;
5650;SDS011;40241;52.684;9.758;2024-03-02T14:44:29;3.60;;;2.30;;
5650;SDS011;40241;52.684;9.758;2024-03-02T14:46:55;2.47;;;2.27;;
5650;SDS011;40241;52.684;9.758;2024-03-02T14:49:20;2.47;;;2.27;;
5650;SDS011;40241;52.684;9.758;2024-03-02T14:51:46;2.23;;;1.97;;
5650;SDS011;40241;52.684;9.758;2024-03-02T14:54:11;3.10;;;2.37;;